There are multiple Weather-warnings   Click here for more information


Meteo18 Weather Cam more information Meteo18 Weather Cam


warning for Thunderstorms more information blitzortung!


Rain radar more information rain snow radar


Visit our other weather sites:

Template documentation
and downloads

And another site



Weather Underground History page Text

Daily Summary for February 25, 2017 Units:  Both    English   Metric
« Previous Day
Next Day »
Daily Weekly Monthly Yearly Custom
  High: Low: Average:
Temperature: 50.7 °F /  10.4 °C 28 °F /  -2.2 °C 39.4 °F /  4.1 °C
Dew Point: 37 °F /  2.8 °C 26.6 °F /  -3.0 °C 32.2 °F /  0.1 °C
Humidity: 95 % 50 % 77 %
Wind Speed: 8 mph /  12.9 km/h - 0.9 mph /  1.5 km/h
Wind Gust: 9 mph /  14.5 km/h - -
Wind:- - SSW
Pressure: 30.3 in /  1024.3 hPa 30.1 in /  1019.5 hPa -
Precipitation: 0 in /  0.0 mm    
Historical Graphs
 
 
Tabular Data for February 25, 2017
Time Temperature Dew Point Pressure Wind Wind Speed Wind Gust Humidity Rainfall Rate (Hourly)
00:02 36.5 °F /  2.5 °C 31.8 °F /  -0.1 °C 30.2 in /  1023.6 hPa Calm   1 mph /  1.6 km/h 83 % 0 in /  0.0 mm
00:12 36.5 °F /  2.5 °C 31.5 °F /  -0.3 °C 30.2 in /  1023.2 hPa Calm   1 mph /  1.6 km/h 82 % 0 in /  0.0 mm
00:17 35.8 °F /  2.1 °C 31.1 °F /  -0.5 °C 30.2 in /  1023.2 hPa WNW 1 mph /  1.6 km/h 1 mph /  1.6 km/h 83 % 0 in /  0.0 mm
00:22 35.2 °F /  1.8 °C 30.9 °F /  -0.6 °C 30.2 in /  1023.2 hPa Calm   1 mph /  1.6 km/h 84 % 0 in /  0.0 mm
00:27 34.9 °F /  1.6 °C 30.9 °F /  -0.6 °C 30.2 in /  1023.2 hPa East 1 mph /  1.6 km/h 1 mph /  1.6 km/h 85 % 0 in /  0.0 mm
00:32 34.7 °F /  1.5 °C 31.3 °F /  -0.4 °C 30.2 in /  1023.2 hPa Calm   2 mph /  3.2 km/h 87 % 0 in /  0.0 mm
00:42 35.1 °F /  1.7 °C 30.9 °F /  -0.6 °C 30.2 in /  1023.2 hPa Calm   2 mph /  3.2 km/h 85 % 0 in /  0.0 mm
00:47 34.7 °F /  1.5 °C 30.7 °F /  -0.7 °C 30.2 in /  1023.2 hPa Calm   2 mph /  3.2 km/h 85 % 0 in /  0.0 mm
00:57 34.3 °F /  1.3 °C 30.9 °F /  -0.6 °C 30.2 in /  1023.2 hPa Calm   1 mph /  1.6 km/h 87 % 0 in /  0.0 mm
01:02 34.9 °F /  1.6 °C 31.1 °F /  -0.5 °C 30.2 in /  1023.2 hPa Calm   1 mph /  1.6 km/h 86 % 0 in /  0.0 mm
01:07 34.5 °F /  1.4 °C 30.7 °F /  -0.7 °C 30.2 in /  1023.2 hPa Calm   1 mph /  1.6 km/h 86 % 0 in /  0.0 mm
01:12 34.2 °F /  1.2 °C 30.2 °F /  -1.0 °C 30.2 in /  1023.2 hPa WNW 1 mph /  1.6 km/h 1 mph /  1.6 km/h 85 % 0 in /  0.0 mm
01:17 33.4 °F /  0.8 °C 30 °F /  -1.1 °C 30.2 in /  1023.2 hPa West 1 mph /  1.6 km/h 1 mph /  1.6 km/h 87 % 0 in /  0.0 mm
01:22 33.3 °F /  0.7 °C 30 °F /  -1.1 °C 30.2 in /  1023.2 hPa WNW 1 mph /  1.6 km/h 1 mph /  1.6 km/h 88 % 0 in /  0.0 mm
01:27 33.1 °F /  0.6 °C 29.8 °F /  -1.2 °C 30.2 in /  1023.6 hPa WNW 1 mph /  1.6 km/h 1 mph /  1.6 km/h 88 % 0 in /  0.0 mm
01:32 33.1 °F /  0.6 °C 30.2 °F /  -1.0 °C 30.2 in /  1023.6 hPa WNW 1 mph /  1.6 km/h 1 mph /  1.6 km/h 89 % 0 in /  0.0 mm
01:37 32.7 °F /  0.4 °C 29.8 °F /  -1.2 °C 30.2 in /  1023.6 hPa Calm   1 mph /  1.6 km/h 89 % 0 in /  0.0 mm
01:42 33.3 °F /  0.7 °C 30.4 °F /  -0.9 °C 30.2 in /  1023.6 hPa Calm   1 mph /  1.6 km/h 89 % 0 in /  0.0 mm
01:47 33.4 °F /  0.8 °C 30.2 °F /  -1.0 °C 30.2 in /  1023.6 hPa Calm   1 mph /  1.6 km/h 88 % 0 in /  0.0 mm
01:52 33.4 °F /  0.8 °C 30.2 °F /  -1.0 °C 30.2 in /  1023.6 hPa Calm   1 mph /  1.6 km/h 88 % 0 in /  0.0 mm
01:57 33.8 °F /  1.0 °C 30.6 °F /  -0.8 °C 30.2 in /  1023.6 hPa Calm     88 % 0 in /  0.0 mm
02:02 34 °F /  1.1 °C 30.6 °F /  -0.8 °C 30.2 in /  1023.2 hPa Calm     87 % 0 in /  0.0 mm
02:12 33.4 °F /  0.8 °C 30 °F /  -1.1 °C 30.2 in /  1023.2 hPa Calm     87 % 0 in /  0.0 mm
02:17 33.3 °F /  0.7 °C 30 °F /  -1.1 °C 30.2 in /  1023.2 hPa Calm     88 % 0 in /  0.0 mm
02:22 33.3 °F /  0.7 °C 29.8 °F /  -1.2 °C 30.2 in /  1023.2 hPa Calm     87 % 0 in /  0.0 mm
02:32 32.4 °F /  0.2 °C 29.5 °F /  -1.4 °C 30.2 in /  1023.2 hPa Calm     89 % 0 in /  0.0 mm
02:42 32.2 °F /  0.1 °C 29.7 °F /  -1.3 °C 30.2 in /  1023.2 hPa Calm     90 % 0 in /  0.0 mm
02:47 32.2 °F /  0.1 °C 29.7 °F /  -1.3 °C 30.2 in /  1023.2 hPa Calm     90 % 0 in /  0.0 mm
02:52 32.2 °F /  0.1 °C 29.7 °F /  -1.3 °C 30.2 in /  1023.2 hPa Calm     90 % 0 in /  0.0 mm
02:57 32 °F /  0.0 °C 29.5 °F /  -1.4 °C 30.2 in /  1023.2 hPa Calm     90 % 0 in /  0.0 mm
03:02 31.6 °F /  -0.2 °C 29.1 °F /  -1.6 °C 30.2 in /  1023.2 hPa Calm     90 % 0 in /  0.0 mm
03:07 31.1 °F /  -0.5 °C 28.6 °F /  -1.9 °C 30.2 in /  1023.2 hPa Calm     90 % 0 in /  0.0 mm
03:12 30.7 °F /  -0.7 °C 28.4 °F /  -2.0 °C 30.2 in /  1023.2 hPa Calm     91 % 0 in /  0.0 mm
03:17 30.6 °F /  -0.8 °C 28.2 °F /  -2.1 °C 30.2 in /  1023.2 hPa Calm     91 % 0 in /  0.0 mm
03:22 30.9 °F /  -0.6 °C 29.1 °F /  -1.6 °C 30.2 in /  1023.2 hPa Calm     93 % 0 in /  0.0 mm
03:32 30.9 °F /  -0.6 °C 28.6 °F /  -1.9 °C 30.2 in /  1023.2 hPa Calm     91 % 0 in /  0.0 mm
03:42 30.6 °F /  -0.8 °C 28.6 °F /  -1.9 °C 30.2 in /  1022.9 hPa Calm     92 % 0 in /  0.0 mm
03:47 30.6 °F /  -0.8 °C 28.6 °F /  -1.9 °C 30.2 in /  1022.9 hPa Calm     92 % 0 in /  0.0 mm
03:52 30.6 °F /  -0.8 °C 28.6 °F /  -1.9 °C 30.2 in /  1022.9 hPa Calm     92 % 0 in /  0.0 mm
04:02 30.6 °F /  -0.8 °C 28.8 °F /  -1.8 °C 30.2 in /  1022.9 hPa Calm     93 % 0 in /  0.0 mm
04:07 30.7 °F /  -0.7 °C 28.8 °F /  -1.8 °C 30.2 in /  1022.6 hPa Calm     92 % 0 in /  0.0 mm
04:12 30.7 °F /  -0.7 °C 28.8 °F /  -1.8 °C 30.2 in /  1022.6 hPa Calm     92 % 0 in /  0.0 mm
04:17 30.7 °F /  -0.7 °C 28.8 °F /  -1.8 °C 30.2 in /  1022.6 hPa Calm     92 % 0 in /  0.0 mm
04:22 30.7 °F /  -0.7 °C 28.8 °F /  -1.8 °C 30.2 in /  1022.6 hPa Calm     92 % 0 in /  0.0 mm
04:32 30.4 °F /  -0.9 °C 28.4 °F /  -2.0 °C 30.2 in /  1022.6 hPa Calm     92 % 0 in /  0.0 mm
04:37 30 °F /  -1.1 °C 28 °F /  -2.2 °C 30.2 in /  1022.6 hPa Calm     92 % 0 in /  0.0 mm
04:42 29.8 °F /  -1.2 °C 28 °F /  -2.2 °C 30.2 in /  1022.6 hPa Calm     93 % 0 in /  0.0 mm
04:47 29.8 °F /  -1.2 °C 28 °F /  -2.2 °C 30.2 in /  1022.6 hPa Calm     93 % 0 in /  0.0 mm
04:52 29.8 °F /  -1.2 °C 28 °F /  -2.2 °C 30.2 in /  1022.9 hPa Calm     93 % 0 in /  0.0 mm
04:57 29.7 °F /  -1.3 °C 27.7 °F /  -2.4 °C 30.2 in /  1022.9 hPa Calm     92 % 0 in /  0.0 mm
05:02 29.5 °F /  -1.4 °C 27.7 °F /  -2.4 °C 30.2 in /  1022.9 hPa Calm     93 % 0 in /  0.0 mm
05:12 29.5 °F /  -1.4 °C 28 °F /  -2.2 °C 30.2 in /  1022.9 hPa Calm     94 % 0 in /  0.0 mm
05:17 29.7 °F /  -1.3 °C 28.2 °F /  -2.1 °C 30.2 in /  1022.9 hPa Calm     94 % 0 in /  0.0 mm
05:22 29.8 °F /  -1.2 °C 28.4 °F /  -2.0 °C 30.2 in /  1022.9 hPa Calm     94 % 0 in /  0.0 mm
05:32 29.3 °F /  -1.5 °C 27.5 °F /  -2.5 °C 30.2 in /  1022.9 hPa Calm     93 % 0 in /  0.0 mm
05:37 28.9 °F /  -1.7 °C 27.1 °F /  -2.7 °C 30.2 in /  1022.9 hPa Calm     93 % 0 in /  0.0 mm
05:42 29.1 °F /  -1.6 °C 27.7 °F /  -2.4 °C 30.2 in /  1022.9 hPa Calm     94 % 0 in /  0.0 mm
05:47 29.1 °F /  -1.6 °C 27.7 °F /  -2.4 °C 30.2 in /  1022.9 hPa Calm     94 % 0 in /  0.0 mm
05:52 29.3 °F /  -1.5 °C 27.9 °F /  -2.3 °C 30.2 in /  1022.9 hPa Calm     94 % 0 in /  0.0 mm
06:02 29.1 °F /  -1.6 °C 27.7 °F /  -2.4 °C 30.2 in /  1022.9 hPa Calm     94 % 0 in /  0.0 mm
06:12 28.9 °F /  -1.7 °C 27.5 °F /  -2.5 °C 30.2 in /  1022.9 hPa Calm     94 % 0 in /  0.0 mm
06:17 29.1 °F /  -1.6 °C 27.9 °F /  -2.3 °C 30.2 in /  1022.9 hPa Calm     95 % 0 in /  0.0 mm
06:22 29.5 °F /  -1.4 °C 28.2 °F /  -2.1 °C 30.2 in /  1023.2 hPa Calm     95 % 0 in /  0.0 mm
06:32 29.5 °F /  -1.4 °C 28 °F /  -2.2 °C 30.2 in /  1023.2 hPa Calm     94 % 0 in /  0.0 mm
06:42 29.3 °F /  -1.5 °C 27.9 °F /  -2.3 °C 30.2 in /  1023.2 hPa Calm     94 % 0 in /  0.0 mm
06:47 29.1 °F /  -1.6 °C 27.3 °F /  -2.6 °C 30.2 in /  1023.2 hPa Calm     93 % 0 in /  0.0 mm
06:52 29.1 °F /  -1.6 °C 27.3 °F /  -2.6 °C 30.2 in /  1023.2 hPa Calm     93 % 0 in /  0.0 mm
07:02 28.6 °F /  -1.9 °C 26.8 °F /  -2.9 °C 30.2 in /  1023.2 hPa Calm     93 % 0 in /  0.0 mm
07:12 28.2 °F /  -2.1 °C 26.8 °F /  -2.9 °C 30.2 in /  1022.9 hPa Calm     94 % 0 in /  0.0 mm
07:17 28.2 °F /  -2.1 °C 26.8 °F /  -2.9 °C 30.2 in /  1023.2 hPa Calm     94 % 0 in /  0.0 mm
07:22 28 °F /  -2.2 °C 26.6 °F /  -3.0 °C 30.2 in /  1023.2 hPa Calm     94 % 0 in /  0.0 mm
07:32 28 °F /  -2.2 °C 26.8 °F /  -2.9 °C 30.2 in /  1023.2 hPa Calm     95 % 0 in /  0.0 mm
07:37 28 °F /  -2.2 °C 26.6 °F /  -3.0 °C 30.2 in /  1023.2 hPa Calm     94 % 0 in /  0.0 mm
07:42 28 °F /  -2.2 °C 26.6 °F /  -3.0 °C 30.2 in /  1023.6 hPa Calm     94 % 0 in /  0.0 mm
07:47 28.2 °F /  -2.1 °C 27 °F /  -2.8 °C 30.2 in /  1023.6 hPa Calm     95 % 0 in /  0.0 mm
07:52 28.2 °F /  -2.1 °C 27 °F /  -2.8 °C 30.2 in /  1023.6 hPa Calm     95 % 0 in /  0.0 mm
07:57 28 °F /  -2.2 °C 26.6 °F /  -3.0 °C 30.2 in /  1023.6 hPa Calm     94 % 0 in /  0.0 mm
08:02 28 °F /  -2.2 °C 26.8 °F /  -2.9 °C 30.2 in /  1023.6 hPa Calm     95 % 0 in /  0.0 mm
08:12 28.2 °F /  -2.1 °C 27 °F /  -2.8 °C 30.2 in /  1023.9 hPa Calm     95 % 0 in /  0.0 mm
08:17 28.4 °F /  -2.0 °C 27.1 °F /  -2.7 °C 30.2 in /  1023.9 hPa Calm     95 % 0 in /  0.0 mm
08:22 29.1 °F /  -1.6 °C 27.9 °F /  -2.3 °C 30.2 in /  1023.6 hPa Calm     95 % 0 in /  0.0 mm
08:32 30.4 °F /  -0.9 °C 29.1 °F /  -1.6 °C 30.2 in /  1023.9 hPa Calm     95 % 0 in /  0.0 mm
08:37 30.7 °F /  -0.7 °C 29.5 °F /  -1.4 °C 30.2 in /  1023.6 hPa Calm     95 % 0 in /  0.0 mm
08:42 30.9 °F /  -0.6 °C 29.1 °F /  -1.6 °C 30.2 in /  1023.9 hPa Calm     93 % 0 in /  0.0 mm
08:47 31.1 °F /  -0.5 °C 29.3 °F /  -1.5 °C 30.2 in /  1023.9 hPa Calm     93 % 0 in /  0.0 mm
08:52 31.5 °F /  -0.3 °C 29.7 °F /  -1.3 °C 30.2 in /  1023.9 hPa Calm     93 % 0 in /  0.0 mm
09:02 32 °F /  0.0 °C 30.2 °F /  -1.0 °C 30.2 in /  1023.9 hPa Calm     93 % 0 in /  0.0 mm
09:12 34.5 °F /  1.4 °C 32.4 °F /  0.2 °C 30.2 in /  1023.9 hPa Calm     92 % 0 in /  0.0 mm
09:17 36 °F /  2.2 °C 34.2 °F /  1.2 °C 30.2 in /  1023.9 hPa Calm     93 % 0 in /  0.0 mm
09:22 36.1 °F /  2.3 °C 32.9 °F /  0.5 °C 30.2 in /  1023.9 hPa Calm     88 % 0 in /  0.0 mm
09:32 37.6 °F /  3.1 °C 33.4 °F /  0.8 °C 30.2 in /  1023.9 hPa Calm     85 % 0 in /  0.0 mm
09:37 37.6 °F /  3.1 °C 32.9 °F /  0.5 °C 30.2 in /  1023.9 hPa Calm     83 % 0 in /  0.0 mm
09:42 38.3 °F /  3.5 °C 34 °F /  1.1 °C 30.2 in /  1023.9 hPa Calm     84 % 0 in /  0.0 mm
09:47 39.7 °F /  4.3 °C 35.2 °F /  1.8 °C 30.3 in /  1024.3 hPa Calm     84 % 0 in /  0.0 mm
09:52 40.3 °F /  4.6 °C 34.5 °F /  1.4 °C 30.3 in /  1024.3 hPa Calm     80 % 0 in /  0.0 mm
09:57 40.8 °F /  4.9 °C 34.5 °F /  1.4 °C 30.3 in /  1024.3 hPa Calm     78 % 0 in /  0.0 mm
10:02 39.6 °F /  4.2 °C 33.3 °F /  0.7 °C 30.3 in /  1024.3 hPa Calm     78 % 0 in /  0.0 mm
10:07 39.4 °F /  4.1 °C 34.3 °F /  1.3 °C 30.3 in /  1024.3 hPa Calm     82 % 0 in /  0.0 mm
10:12 39.6 °F /  4.2 °C 34.2 °F /  1.2 °C 30.3 in /  1024.3 hPa Calm     81 % 0 in /  0.0 mm
10:17 39.6 °F /  4.2 °C 34 °F /  1.1 °C 30.3 in /  1024.3 hPa Calm     80 % 0 in /  0.0 mm
10:22 38.8 °F /  3.8 °C 33.4 °F /  0.8 °C 30.3 in /  1024.3 hPa Calm     81 % 0 in /  0.0 mm
10:32 39 °F /  3.9 °C 34.3 °F /  1.3 °C 30.3 in /  1024.3 hPa SSW 1 mph /  1.6 km/h 2 mph /  3.2 km/h 83 % 0 in /  0.0 mm
10:37 39.6 °F /  4.2 °C 35.1 °F /  1.7 °C 30.3 in /  1024.3 hPa SSW 1 mph /  1.6 km/h 2 mph /  3.2 km/h 84 % 0 in /  0.0 mm
10:42 39.6 °F /  4.2 °C 34.9 °F /  1.6 °C 30.3 in /  1024.3 hPa Calm   3 mph /  4.8 km/h 83 % 0 in /  0.0 mm
10:47 39.9 °F /  4.4 °C 35.2 °F /  1.8 °C 30.3 in /  1024.3 hPa SSE 2 mph /  3.2 km/h 3 mph /  4.8 km/h 83 % 0 in /  0.0 mm
10:52 40.1 °F /  4.5 °C 35.4 °F /  1.9 °C 30.3 in /  1024.3 hPa Calm   4 mph /  6.4 km/h 83 % 0 in /  0.0 mm
10:57 40.5 °F /  4.7 °C 35.8 °F /  2.1 °C 30.3 in /  1024.3 hPa SSW 3 mph /  4.8 km/h 4 mph /  6.4 km/h 83 % 0 in /  0.0 mm
11:02 40.6 °F /  4.8 °C 36 °F /  2.2 °C 30.3 in /  1024.3 hPa South 2 mph /  3.2 km/h 4 mph /  6.4 km/h 83 % 0 in /  0.0 mm
11:07 41.2 °F /  5.1 °C 36.5 °F /  2.5 °C 30.3 in /  1024.3 hPa SE 2 mph /  3.2 km/h 4 mph /  6.4 km/h 83 % 0 in /  0.0 mm
11:12 41.5 °F /  5.3 °C 37 °F /  2.8 °C 30.3 in /  1024.3 hPa South 3 mph /  4.8 km/h 4 mph /  6.4 km/h 84 % 0 in /  0.0 mm
11:17 41.7 °F /  5.4 °C 36.3 °F /  2.4 °C 30.3 in /  1024.3 hPa SW 3 mph /  4.8 km/h 4 mph /  6.4 km/h 81 % 0 in /  0.0 mm
11:22 41.9 °F /  5.5 °C 36.9 °F /  2.7 °C 30.3 in /  1024.3 hPa Calm   6 mph /  9.7 km/h 82 % 0 in /  0.0 mm
11:27 42.4 °F /  5.8 °C 37 °F /  2.8 °C 30.3 in /  1024.3 hPa SSW 2 mph /  3.2 km/h 6 mph /  9.7 km/h 81 % 0 in /  0.0 mm
11:32 42.6 °F /  5.9 °C 36.9 °F /  2.7 °C 30.3 in /  1024.3 hPa SSW 4 mph /  6.4 km/h 6 mph /  9.7 km/h 80 % 0 in /  0.0 mm
11:42 43.2 °F /  6.2 °C 36.7 °F /  2.6 °C 30.3 in /  1024.3 hPa SSW 5 mph /  8.0 km/h 6 mph /  9.7 km/h 78 % 0 in /  0.0 mm
11:47 43.2 °F /  6.2 °C 36.5 °F /  2.5 °C 30.3 in /  1024.3 hPa SSW 6 mph /  9.7 km/h 6 mph /  9.7 km/h 77 % 0 in /  0.0 mm
11:52 43.3 °F /  6.3 °C 36.3 °F /  2.4 °C 30.3 in /  1024.3 hPa South 2 mph /  3.2 km/h 7 mph /  11.3 km/h 76 % 0 in /  0.0 mm
11:57 43.5 °F /  6.4 °C 36.5 °F /  2.5 °C 30.3 in /  1024.3 hPa SW 4 mph /  6.4 km/h 7 mph /  11.3 km/h 76 % 0 in /  0.0 mm
12:02 43.9 °F /  6.6 °C 36.9 °F /  2.7 °C 30.3 in /  1024.3 hPa SW 4 mph /  6.4 km/h 7 mph /  11.3 km/h 76 % 0 in /  0.0 mm
12:12 44.2 °F /  6.8 °C 36.5 °F /  2.5 °C 30.3 in /  1024.3 hPa SW 4 mph /  6.4 km/h 6 mph /  9.7 km/h 74 % 0 in /  0.0 mm
12:17 44.4 °F /  6.9 °C 36.7 °F /  2.6 °C 30.3 in /  1024.3 hPa WSW 3 mph /  4.8 km/h 6 mph /  9.7 km/h 74 % 0 in /  0.0 mm
12:22 44.8 °F /  7.1 °C 36.7 °F /  2.6 °C 30.3 in /  1024.3 hPa WSW 4 mph /  6.4 km/h 7 mph /  11.3 km/h 73 % 0 in /  0.0 mm
12:27 45 °F /  7.2 °C 36.9 °F /  2.7 °C 30.3 in /  1024.3 hPa SSW 3 mph /  4.8 km/h 7 mph /  11.3 km/h 73 % 0 in /  0.0 mm
12:32 45.3 °F /  7.4 °C 36.1 °F /  2.3 °C 30.3 in /  1024.3 hPa SSW 5 mph /  8.0 km/h 7 mph /  11.3 km/h 70 % 0 in /  0.0 mm
12:42 45.9 °F /  7.7 °C 36.7 °F /  2.6 °C 30.2 in /  1023.9 hPa South 4 mph /  6.4 km/h 7 mph /  11.3 km/h 70 % 0 in /  0.0 mm
12:47 46 °F /  7.8 °C 36.5 °F /  2.5 °C 30.2 in /  1023.9 hPa SW 2 mph /  3.2 km/h 7 mph /  11.3 km/h 69 % 0 in /  0.0 mm
12:57 46.4 °F /  8.0 °C 36 °F /  2.2 °C 30.2 in /  1023.9 hPa Calm   6 mph /  9.7 km/h 67 % 0 in /  0.0 mm
13:02 46.8 °F /  8.2 °C 35.6 °F /  2.0 °C 30.2 in /  1023.6 hPa Calm   6 mph /  9.7 km/h 65 % 0 in /  0.0 mm
13:12 46.8 °F /  8.2 °C 35.6 °F /  2.0 °C 30.2 in /  1023.6 hPa SSE 3 mph /  4.8 km/h 6 mph /  9.7 km/h 65 % 0 in /  0.0 mm
13:17 47.1 °F /  8.4 °C 36 °F /  2.2 °C 30.2 in /  1023.2 hPa SSW 5 mph /  8.0 km/h 6 mph /  9.7 km/h 65 % 0 in /  0.0 mm
13:22 47.5 °F /  8.6 °C 36 °F /  2.2 °C 30.2 in /  1023.2 hPa SSW 2 mph /  3.2 km/h 6 mph /  9.7 km/h 64 % 0 in /  0.0 mm
13:32 47.8 °F /  8.8 °C 36.7 °F /  2.6 °C 30.2 in /  1023.2 hPa WSW 5 mph /  8.0 km/h 6 mph /  9.7 km/h 65 % 0 in /  0.0 mm
13:37 47.5 °F /  8.6 °C 35.1 °F /  1.7 °C 30.2 in /  1022.9 hPa SSE 2 mph /  3.2 km/h 7 mph /  11.3 km/h 62 % 0 in /  0.0 mm
13:42 47.7 °F /  8.7 °C 35.2 °F /  1.8 °C 30.2 in /  1022.9 hPa SSW 2 mph /  3.2 km/h 7 mph /  11.3 km/h 62 % 0 in /  0.0 mm
13:47 48 °F /  8.9 °C 34.3 °F /  1.3 °C 30.2 in /  1022.9 hPa SSW 5 mph /  8.0 km/h 7 mph /  11.3 km/h 59 % 0 in /  0.0 mm
13:52 48 °F /  8.9 °C 34.9 °F /  1.6 °C 30.2 in /  1022.9 hPa South 2 mph /  3.2 km/h 7 mph /  11.3 km/h 60 % 0 in /  0.0 mm
13:57 48.2 °F /  9.0 °C 33.3 °F /  0.7 °C 30.2 in /  1022.9 hPa SSW 2 mph /  3.2 km/h 6 mph /  9.7 km/h 56 % 0 in /  0.0 mm
14:02 48.4 °F /  9.1 °C 33.8 °F /  1.0 °C 30.2 in /  1022.6 hPa SSE 4 mph /  6.4 km/h 6 mph /  9.7 km/h 57 % 0 in /  0.0 mm
14:12 48.4 °F /  9.1 °C 34.7 °F /  1.5 °C 30.2 in /  1022.2 hPa SSW 1 mph /  1.6 km/h 7 mph /  11.3 km/h 59 % 0 in /  0.0 mm
14:17 48.4 °F /  9.1 °C 34.7 °F /  1.5 °C 30.2 in /  1022.2 hPa SW 4 mph /  6.4 km/h 7 mph /  11.3 km/h 59 % 0 in /  0.0 mm
14:22 48.6 °F /  9.2 °C 35.8 °F /  2.1 °C 30.2 in /  1022.2 hPa Calm   7 mph /  11.3 km/h 61 % 0 in /  0.0 mm
14:27 48.7 °F /  9.3 °C 34.7 °F /  1.5 °C 30.2 in /  1021.9 hPa SW 4 mph /  6.4 km/h 5 mph /  8.0 km/h 58 % 0 in /  0.0 mm
14:32 48.7 °F /  9.3 °C 35.4 °F /  1.9 °C 30.2 in /  1021.9 hPa SSW 1 mph /  1.6 km/h 5 mph /  8.0 km/h 60 % 0 in /  0.0 mm
14:37 49.5 °F /  9.7 °C 35.2 °F /  1.8 °C 30.2 in /  1021.9 hPa ESE 2 mph /  3.2 km/h 5 mph /  8.0 km/h 58 % 0 in /  0.0 mm
14:42 48.9 °F /  9.4 °C 34.3 °F /  1.3 °C 30.2 in /  1021.9 hPa SE 1 mph /  1.6 km/h 5 mph /  8.0 km/h 57 % 0 in /  0.0 mm
14:52 49.3 °F /  9.6 °C 33.8 °F /  1.0 °C 30.2 in /  1021.6 hPa SW 4 mph /  6.4 km/h 5 mph /  8.0 km/h 55 % 0 in /  0.0 mm
14:57 48.9 °F /  9.4 °C 34 °F /  1.1 °C 30.2 in /  1021.6 hPa West 1 mph /  1.6 km/h 6 mph /  9.7 km/h 56 % 0 in /  0.0 mm
15:02 49.3 °F /  9.6 °C 33.8 °F /  1.0 °C 30.2 in /  1021.6 hPa SSE 4 mph /  6.4 km/h 6 mph /  9.7 km/h 55 % 0 in /  0.0 mm
15:07 49.5 °F /  9.7 °C 35.2 °F /  1.8 °C 30.2 in /  1021.6 hPa South 3 mph /  4.8 km/h 8 mph /  12.9 km/h 58 % 0 in /  0.0 mm
15:12 49.5 °F /  9.7 °C 34 °F /  1.1 °C 30.2 in /  1021.6 hPa SW 4 mph /  6.4 km/h 8 mph /  12.9 km/h 55 % 0 in /  0.0 mm
15:17 49.5 °F /  9.7 °C 34 °F /  1.1 °C 30.2 in /  1021.6 hPa South 3 mph /  4.8 km/h 8 mph /  12.9 km/h 55 % 0 in /  0.0 mm
15:22 49.5 °F /  9.7 °C 33.4 °F /  0.8 °C 30.2 in /  1021.6 hPa SW 4 mph /  6.4 km/h 8 mph /  12.9 km/h 54 % 0 in /  0.0 mm
15:27 49.5 °F /  9.7 °C 34 °F /  1.1 °C 30.2 in /  1021.2 hPa SW 4 mph /  6.4 km/h 7 mph /  11.3 km/h 55 % 0 in /  0.0 mm
15:32 49.3 °F /  9.6 °C 32.9 °F /  0.5 °C 30.2 in /  1021.6 hPa South 1 mph /  1.6 km/h 7 mph /  11.3 km/h 53 % 0 in /  0.0 mm
15:37 49.6 °F /  9.8 °C 34.5 °F /  1.4 °C 30.2 in /  1021.2 hPa SW 4 mph /  6.4 km/h 7 mph /  11.3 km/h 56 % 0 in /  0.0 mm
15:42 49.5 °F /  9.7 °C 33.1 °F /  0.6 °C 30.2 in /  1021.2 hPa SSW 1 mph /  1.6 km/h 7 mph /  11.3 km/h 53 % 0 in /  0.0 mm
15:52 49.8 °F /  9.9 °C 32.9 °F /  0.5 °C 30.2 in /  1020.9 hPa SSW 1 mph /  1.6 km/h 7 mph /  11.3 km/h 52 % 0 in /  0.0 mm
15:57 50.2 °F /  10.1 °C 33.3 °F /  0.7 °C 30.2 in /  1020.9 hPa SW 4 mph /  6.4 km/h 4 mph /  6.4 km/h 52 % 0 in /  0.0 mm
16:02 50.2 °F /  10.1 °C 33.3 °F /  0.7 °C 30.2 in /  1020.9 hPa SSW 2 mph /  3.2 km/h 4 mph /  6.4 km/h 52 % 0 in /  0.0 mm
16:12 50.4 °F /  10.2 °C 32.9 °F /  0.5 °C 30.2 in /  1020.9 hPa SW 2 mph /  3.2 km/h 4 mph /  6.4 km/h 51 % 0 in /  0.0 mm
16:17 50.5 °F /  10.3 °C 32.5 °F /  0.3 °C 30.2 in /  1020.9 hPa SSW 4 mph /  6.4 km/h 7 mph /  11.3 km/h 50 % 0 in /  0.0 mm
16:22 50.5 °F /  10.3 °C 33.1 °F /  0.6 °C 30.2 in /  1020.9 hPa South 3 mph /  4.8 km/h 7 mph /  11.3 km/h 51 % 0 in /  0.0 mm
16:32 50.7 °F /  10.4 °C 32.7 °F /  0.4 °C 30.1 in /  1020.5 hPa SW 8 mph /  12.9 km/h 8 mph /  12.9 km/h 50 % 0 in /  0.0 mm
16:37 50.5 °F /  10.3 °C 33.1 °F /  0.6 °C 30.1 in /  1020.5 hPa SSW 4 mph /  6.4 km/h 9 mph /  14.5 km/h 51 % 0 in /  0.0 mm
16:42 50.5 °F /  10.3 °C 35.1 °F /  1.7 °C 30.1 in /  1020.5 hPa SW 5 mph /  8.0 km/h 9 mph /  14.5 km/h 55 % 0 in /  0.0 mm
16:47 50.4 °F /  10.2 °C 32.4 °F /  0.2 °C 30.1 in /  1020.5 hPa SW 3 mph /  4.8 km/h 9 mph /  14.5 km/h 50 % 0 in /  0.0 mm
16:52 50.5 °F /  10.3 °C 33.6 °F /  0.9 °C 30.1 in /  1020.5 hPa SSE 4 mph /  6.4 km/h 9 mph /  14.5 km/h 52 % 0 in /  0.0 mm
16:57 50.5 °F /  10.3 °C 33.6 °F /  0.9 °C 30.1 in /  1020.5 hPa SW 5 mph /  8.0 km/h 7 mph /  11.3 km/h 52 % 0 in /  0.0 mm
17:02 50.4 °F /  10.2 °C 33.8 °F /  1.0 °C 30.1 in /  1020.5 hPa SSW 3 mph /  4.8 km/h 7 mph /  11.3 km/h 53 % 0 in /  0.0 mm
17:12 50.4 °F /  10.2 °C 34.9 °F /  1.6 °C 30.1 in /  1020.5 hPa SSW 4 mph /  6.4 km/h 6 mph /  9.7 km/h 55 % 0 in /  0.0 mm
17:17 50.4 °F /  10.2 °C 35.8 °F /  2.1 °C 30.1 in /  1020.2 hPa South 1 mph /  1.6 km/h 6 mph /  9.7 km/h 57 % 0 in /  0.0 mm
17:22 50.4 °F /  10.2 °C 35.8 °F /  2.1 °C 30.1 in /  1020.2 hPa SSW 2 mph /  3.2 km/h 6 mph /  9.7 km/h 57 % 0 in /  0.0 mm
17:32 49.8 °F /  9.9 °C 35.2 °F /  1.8 °C 30.1 in /  1020.2 hPa South 3 mph /  4.8 km/h 5 mph /  8.0 km/h 57 % 0 in /  0.0 mm
17:42 49.8 °F /  9.9 °C 36.1 °F /  2.3 °C 30.1 in /  1019.9 hPa South 2 mph /  3.2 km/h 5 mph /  8.0 km/h 59 % 0 in /  0.0 mm
17:47 49.6 °F /  9.8 °C 35.4 °F /  1.9 °C 30.1 in /  1019.9 hPa SSE 2 mph /  3.2 km/h 4 mph /  6.4 km/h 58 % 0 in /  0.0 mm
17:52 49.3 °F /  9.6 °C 34.7 °F /  1.5 °C 30.1 in /  1019.9 hPa South 1 mph /  1.6 km/h 4 mph /  6.4 km/h 57 % 0 in /  0.0 mm
18:02 48.4 °F /  9.1 °C 34.7 °F /  1.5 °C 30.1 in /  1019.9 hPa SSE 1 mph /  1.6 km/h 4 mph /  6.4 km/h 59 % 0 in /  0.0 mm
18:12 47.7 °F /  8.7 °C 34.9 °F /  1.6 °C 30.1 in /  1019.9 hPa SSW 1 mph /  1.6 km/h 4 mph /  6.4 km/h 61 % 0 in /  0.0 mm
18:17 47.1 °F /  8.4 °C 35.6 °F /  2.0 °C 30.1 in /  1019.9 hPa SSW 1 mph /  1.6 km/h 3 mph /  4.8 km/h 64 % 0 in /  0.0 mm
18:22 46.6 °F /  8.1 °C 35.8 °F /  2.1 °C 30.1 in /  1020.2 hPa SW 1 mph /  1.6 km/h 3 mph /  4.8 km/h 66 % 0 in /  0.0 mm
18:32 46.2 °F /  7.9 °C 35.1 °F /  1.7 °C 30.1 in /  1020.2 hPa SW 1 mph /  1.6 km/h 2 mph /  3.2 km/h 65 % 0 in /  0.0 mm
18:37 46.2 °F /  7.9 °C 34.3 °F /  1.3 °C 30.1 in /  1020.5 hPa SW 2 mph /  3.2 km/h 2 mph /  3.2 km/h 63 % 0 in /  0.0 mm
18:42 46.6 °F /  8.1 °C 34.3 °F /  1.3 °C 30.1 in /  1020.5 hPa WSW 1 mph /  1.6 km/h 3 mph /  4.8 km/h 62 % 0 in /  0.0 mm
18:52 46.2 °F /  7.9 °C 34.3 °F /  1.3 °C 30.1 in /  1020.2 hPa SW 1 mph /  1.6 km/h 3 mph /  4.8 km/h 63 % 0 in /  0.0 mm
18:57 46 °F /  7.8 °C 34.2 °F /  1.2 °C 30.1 in /  1020.2 hPa Calm   2 mph /  3.2 km/h 63 % 0 in /  0.0 mm
19:02 45.9 °F /  7.7 °C 34 °F /  1.1 °C 30.1 in /  1020.5 hPa Calm   2 mph /  3.2 km/h 63 % 0 in /  0.0 mm
19:12 45.7 °F /  7.6 °C 33.8 °F /  1.0 °C 30.1 in /  1020.5 hPa Calm   2 mph /  3.2 km/h 63 % 0 in /  0.0 mm
19:17 45.3 °F /  7.4 °C 33.8 °F /  1.0 °C 30.1 in /  1020.5 hPa Calm   1 mph /  1.6 km/h 64 % 0 in /  0.0 mm
19:22 45.1 °F /  7.3 °C 33.6 °F /  0.9 °C 30.1 in /  1020.5 hPa Calm   1 mph /  1.6 km/h 64 % 0 in /  0.0 mm
19:32 44.4 °F /  6.9 °C 34.2 °F /  1.2 °C 30.1 in /  1020.2 hPa Calm   1 mph /  1.6 km/h 67 % 0 in /  0.0 mm
19:37 43.9 °F /  6.6 °C 34 °F /  1.1 °C 30.1 in /  1020.2 hPa Calm     68 % 0 in /  0.0 mm
19:42 43.5 °F /  6.4 °C 34.3 °F /  1.3 °C 30.1 in /  1020.2 hPa Calm     70 % 0 in /  0.0 mm
19:47 43.2 °F /  6.2 °C 34.3 °F /  1.3 °C 30.1 in /  1020.2 hPa Calm     71 % 0 in /  0.0 mm
19:52 43 °F /  6.1 °C 34.5 °F /  1.4 °C 30.1 in /  1020.2 hPa Calm     72 % 0 in /  0.0 mm
19:57 42.6 °F /  5.9 °C 34.5 °F /  1.4 °C 30.1 in /  1020.2 hPa Calm     73 % 0 in /  0.0 mm
20:02 42.4 °F /  5.8 °C 34.7 °F /  1.5 °C 30.1 in /  1020.2 hPa Calm     74 % 0 in /  0.0 mm
20:07 42.4 °F /  5.8 °C 34.3 °F /  1.3 °C 30.1 in /  1020.2 hPa Calm     73 % 0 in /  0.0 mm
20:12 42.6 °F /  5.9 °C 34.2 °F /  1.2 °C 30.1 in /  1020.2 hPa Calm     72 % 0 in /  0.0 mm
20:17 42.4 °F /  5.8 °C 34.3 °F /  1.3 °C 30.1 in /  1020.2 hPa Calm     73 % 0 in /  0.0 mm
20:22 42.3 °F /  5.7 °C 33.8 °F /  1.0 °C 30.1 in /  1020.2 hPa Calm     72 % 0 in /  0.0 mm
20:27 42.1 °F /  5.6 °C 33.8 °F /  1.0 °C 30.1 in /  1020.2 hPa Calm     72 % 0 in /  0.0 mm
20:32 42.1 °F /  5.6 °C 34 °F /  1.1 °C 30.1 in /  1020.2 hPa Calm     73 % 0 in /  0.0 mm
20:37 41.4 °F /  5.2 °C 33.4 °F /  0.8 °C 30.1 in /  1020.2 hPa Calm     73 % 0 in /  0.0 mm
20:42 41.2 °F /  5.1 °C 33.3 °F /  0.7 °C 30.1 in /  1020.2 hPa Calm     73 % 0 in /  0.0 mm
20:47 41.5 °F /  5.3 °C 33.3 °F /  0.7 °C 30.1 in /  1020.2 hPa Calm     72 % 0 in /  0.0 mm
20:52 41.7 °F /  5.4 °C 33.4 °F /  0.8 °C 30.1 in /  1019.9 hPa Calm     72 % 0 in /  0.0 mm
20:57 41.7 °F /  5.4 °C 33.4 °F /  0.8 °C 30.1 in /  1019.9 hPa Calm     72 % 0 in /  0.0 mm
21:02 41.5 °F /  5.3 °C 33.8 °F /  1.0 °C 30.1 in /  1019.9 hPa Calm     74 % 0 in /  0.0 mm
21:12 40.5 °F /  4.7 °C 33.1 °F /  0.6 °C 30.1 in /  1019.9 hPa Calm     75 % 0 in /  0.0 mm
21:17 39.9 °F /  4.4 °C 33.3 °F /  0.7 °C 30.1 in /  1019.9 hPa Calm     77 % 0 in /  0.0 mm
21:27 40.1 °F /  4.5 °C 33.1 °F /  0.6 °C 30.1 in /  1019.9 hPa Calm     76 % 0 in /  0.0 mm
21:32 40.3 °F /  4.6 °C 33.1 °F /  0.6 °C 30.1 in /  1019.9 hPa Calm     75 % 0 in /  0.0 mm
21:37 40.3 °F /  4.6 °C 33.1 °F /  0.6 °C 30.1 in /  1019.9 hPa Calm     75 % 0 in /  0.0 mm
21:42 40.6 °F /  4.8 °C 33.1 °F /  0.6 °C 30.1 in /  1020.2 hPa Calm     74 % 0 in /  0.0 mm
21:47 40.6 °F /  4.8 °C 33.1 °F /  0.6 °C 30.1 in /  1019.9 hPa Calm     74 % 0 in /  0.0 mm
21:52 40.6 °F /  4.8 °C 33.1 °F /  0.6 °C 30.1 in /  1019.9 hPa Calm     74 % 0 in /  0.0 mm
21:57 40.6 °F /  4.8 °C 32.7 °F /  0.4 °C 30.1 in /  1019.9 hPa Calm     73 % 0 in /  0.0 mm
22:02 40.6 °F /  4.8 °C 32.4 °F /  0.2 °C 30.1 in /  1019.9 hPa Calm     72 % 0 in /  0.0 mm
22:07 40.3 °F /  4.6 °C 32.4 °F /  0.2 °C 30.1 in /  1019.9 hPa Calm     73 % 0 in /  0.0 mm
22:12 40.3 °F /  4.6 °C 32.7 °F /  0.4 °C 30.1 in /  1019.9 hPa Calm     74 % 0 in /  0.0 mm
22:17 40.5 °F /  4.7 °C 32.5 °F /  0.3 °C 30.1 in /  1019.9 hPa Calm   1 mph /  1.6 km/h 73 % 0 in /  0.0 mm
22:22 39.9 °F /  4.4 °C 32.4 °F /  0.2 °C 30.1 in /  1019.9 hPa Calm   1 mph /  1.6 km/h 74 % 0 in /  0.0 mm
22:32 39 °F /  3.9 °C 31.8 °F /  -0.1 °C 30.1 in /  1019.9 hPa Calm   1 mph /  1.6 km/h 75 % 0 in /  0.0 mm
22:42 39.6 °F /  4.2 °C 32 °F /  0.0 °C 30.1 in /  1019.9 hPa Calm   1 mph /  1.6 km/h 74 % 0 in /  0.0 mm
22:47 39.4 °F /  4.1 °C 31.8 °F /  -0.1 °C 30.1 in /  1019.9 hPa Calm   1 mph /  1.6 km/h 74 % 0 in /  0.0 mm
22:52 39.2 °F /  4.0 °C 32 °F /  0.0 °C 30.1 in /  1019.9 hPa Calm   1 mph /  1.6 km/h 75 % 0 in /  0.0 mm
23:02 39 °F /  3.9 °C 32.2 °F /  0.1 °C 30.1 in /  1019.5 hPa Calm   1 mph /  1.6 km/h 76 % 0 in /  0.0 mm
23:07 39.6 °F /  4.2 °C 32 °F /  0.0 °C 30.1 in /  1019.5 hPa Calm   1 mph /  1.6 km/h 74 % 0 in /  0.0 mm
23:12 39.7 °F /  4.3 °C 31.8 °F /  -0.1 °C 30.1 in /  1019.5 hPa Calm   1 mph /  1.6 km/h 73 % 0 in /  0.0 mm
23:17 39.2 °F /  4.0 °C 31.6 °F /  -0.2 °C 30.1 in /  1019.5 hPa Calm   1 mph /  1.6 km/h 74 % 0 in /  0.0 mm
23:22 39 °F /  3.9 °C 31.8 °F /  -0.1 °C 30.1 in /  1019.5 hPa SW 1 mph /  1.6 km/h 1 mph /  1.6 km/h 75 % 0 in /  0.0 mm
23:27 39.6 °F /  4.2 °C 32 °F /  0.0 °C 30.1 in /  1019.5 hPa SSW 1 mph /  1.6 km/h 1 mph /  1.6 km/h 74 % 0 in /  0.0 mm
23:32 39.6 °F /  4.2 °C 31.6 °F /  -0.2 °C 30.1 in /  1019.5 hPa Calm   1 mph /  1.6 km/h 73 % 0 in /  0.0 mm
23:42 39.4 °F /  4.1 °C 31.8 °F /  -0.1 °C 30.1 in /  1019.5 hPa Calm   1 mph /  1.6 km/h 74 % 0 in /  0.0 mm
23:47 39.2 °F /  4.0 °C 31.6 °F /  -0.2 °C 30.1 in /  1019.5 hPa Calm     74 % 0 in /  0.0 mm
23:52 39 °F /  3.9 °C 31.8 °F /  -0.1 °C 30.1 in /  1019.5 hPa Calm     75 % 0 in /  0.0 mm
23:57 38.8 °F /  3.8 °C 31.6 °F /  -0.2 °C 30.1 in /  1019.5 hPa Calm     75 % 0 in /  0.0 mm
Meteo18
Compliments of Weather Underground - 4 mb

Script developed by  Jim McMurry - jmcmurry@mwt.net Adapted for the template by  Wim van der Kuil - Leuven-Template.eu

You find our weather info also at:

European Weather Network

Weather Underground

Equipment we use:

Weather-station
Davis Vue

Weather-program
Meteohub

Weather-server
Raspberry PI 2 B+

Provider
1 and 1

Davis Vue

Meteohub

Raspberry PI 2 B+

1 and 1